Time;durP1;ratioP1;P1;durP2;ratioP2;P2;SDS_P1;SDS_P2;PMS_P1;PMS_P2;Temp;Humidity;BMP_temperature;BMP_pressure;BME280_temperature;BME280_humidity;BME280_pressure;Samples;Min_cycle;Max_cycle;Signal;HPM_P1;HPM_P2
2023/03/03 00:01:35;;;;;;;15.70;10.57;;;7.00;99.90;;;;;;5070759;28;20217;-76
2023/03/03 00:04:01;;;;;;;13.93;10.13;;;7.00;99.90;;;;;;5070605;28;20188;-75
2023/03/03 00:06:29;;;;;;;18.37;11.80;;;6.90;99.90;;;;;;5073359;28;20174;-79
2023/03/03 00:08:55;;;;;;;15.57;10.77;;;6.90;99.90;;;;;;5076242;28;20231;-80
2023/03/03 00:11:21;;;;;;;12.80;10.07;;;7.00;99.90;;;;;;5076292;28;20238;-74
2023/03/03 00:13:50;;;;;;;16.37;10.87;;;6.90;99.90;;;;;;5075960;28;20575;-75
2023/03/03 00:16:36;;;;;;;15.73;11.10;;;6.90;99.90;;;;;;5108564;28;20186;-75
2023/03/03 00:19:02;;;;;;;16.70;11.40;;;6.90;99.90;;;;;;5075781;28;20251;-75
2023/03/03 00:21:56;;;;;;;18.00;11.53;;;6.90;99.90;;;;;;5075663;28;20213;-74
2023/03/03 00:24:32;;;;;;;15.33;10.70;;;6.80;99.90;;;;;;5074564;28;20217;-74
2023/03/03 00:27:08;;;;;;;15.00;11.23;;;6.80;99.90;;;;;;5075429;28;20227;-76
2023/03/03 00:29:44;;;;;;;14.10;10.87;;;6.90;99.90;;;;;;5075386;28;20165;-79
2023/03/03 00:32:42;;;;;;;13.27;9.77;;;6.90;99.90;;;;;;5075360;28;20185;-74
2023/03/03 00:35:31;;;;;;;14.77;10.27;;;6.90;99.90;;;;;;5075341;28;20527;-73
2023/03/03 00:38:01;;;;;;;13.17;10.33;;;6.80;99.90;;;;;;5083313;28;20177;-74
2023/03/03 00:40:38;;;;;;;14.97;10.73;;;6.70;99.90;;;;;;5086829;28;20653;-75
2023/03/03 00:43:26;;;;;;;16.50;10.63;;;6.70;99.90;;;;;;5076945;28;20757;-79
2023/03/03 00:45:56;;;;;;;19.20;11.17;;;6.70;99.90;;;;;;5075485;28;20179;-77
2023/03/03 00:48:49;;;;;;;11.80;9.67;;;6.80;99.90;;;;;;5075125;28;20180;-75
2023/03/03 00:51:18;;;;;;;14.03;9.80;;;6.80;99.90;;;;;;5072949;28;20184;-77
2023/03/03 00:53:43;;;;;;;13.90;10.33;;;6.70;99.90;;;;;;5078265;28;20688;-74
2023/03/03 00:56:09;;;;;;;14.57;10.90;;;6.70;99.90;;;;;;5075142;28;20204;-76
2023/03/03 00:58:35;;;;;;;13.90;10.17;;;6.60;99.90;;;;;;5075305;28;20182;-74
2023/03/03 01:01:00;;;;;;;15.80;10.50;;;6.60;99.90;;;;;;5075106;28;20212;-78
2023/03/03 01:03:26;;;;;;;13.73;9.73;;;6.60;99.90;;;;;;5075611;28;20205;-74
2023/03/03 01:05:53;;;;;;;13.03;10.23;;;6.60;99.90;;;;;;5084376;28;20186;-75
2023/03/03 01:08:21;;;;;;;13.63;10.37;;;6.50;99.90;;;;;;5088004;28;20165;-75
2023/03/03 01:10:57;;;;;;;14.30;10.57;;;6.50;99.90;;;;;;5075348;28;20188;-74
2023/03/03 01:13:27;;;;;;;17.63;10.73;;;6.60;99.90;;;;;;5073998;28;20709;-81
2023/03/03 01:15:53;;;;;;;14.33;10.60;;;6.50;99.90;;;;;;5073768;28;20294;-81
2023/03/03 01:18:19;;;;;;;13.07;10.20;;;6.50;99.90;;;;;;5076688;28;20638;-79
2023/03/03 01:20:45;;;;;;;16.43;11.00;;;6.50;99.90;;;;;;5075660;28;20678;-79
2023/03/03 01:23:11;;;;;;;18.07;11.33;;;6.50;99.90;;;;;;5074746;28;20180;-79
2023/03/03 01:25:37;;;;;;;14.77;10.20;;;6.50;99.90;;;;;;5074426;28;20174;-80
2023/03/03 01:28:03;;;;;;;16.37;10.73;;;6.50;99.90;;;;;;5072862;28;20235;-75
2023/03/03 01:30:30;;;;;;;13.77;10.07;;;6.50;99.90;;;;;;5074030;28;20635;-83
2023/03/03 01:32:56;;;;;;;12.80;10.37;;;6.50;99.90;;;;;;5074240;28;20551;-83
2023/03/03 01:35:22;;;;;;;16.03;10.67;;;6.50;99.90;;;;;;5074084;28;20173;-81
2023/03/03 01:37:48;;;;;;;14.53;11.10;;;6.50;99.90;;;;;;5074428;28;20196;-80
2023/03/03 01:40:22;;;;;;;16.33;10.67;;;6.40;99.90;;;;;;5074229;28;20663;-81
2023/03/03 01:42:49;;;;;;;16.07;10.73;;;6.30;99.90;;;;;;5072300;28;20657;-74
2023/03/03 01:45:25;;;;;;;14.93;10.57;;;6.40;99.90;;;;;;5075569;28;20207;-74
2023/03/03 01:48:09;;;;;;;15.00;11.00;;;6.30;99.90;;;;;;5072488;28;20719;-75
2023/03/03 01:50:44;;;;;;;14.50;10.63;;;6.40;99.90;;;;;;5073569;28;20172;-75
2023/03/03 01:53:29;;;;;;;13.93;10.63;;;6.40;99.90;;;;;;5073813;28;20181;-74
2023/03/03 01:55:55;;;;;;;14.13;10.30;;;6.40;99.90;;;;;;5073610;28;20237;-74
2023/03/03 01:58:27;;;;;;;16.23;11.30;;;6.50;99.90;;;;;;5073772;28;20195;-73
2023/03/03 02:01:01;;;;;;;16.13;10.97;;;6.50;99.90;;;;;;5073793;28;20226;-75
2023/03/03 02:03:27;;;;;;;18.67;11.87;;;6.40;99.90;;;;;;5073562;28;20201;-73
2023/03/03 02:05:56;;;;;;;17.93;11.97;;;6.40;99.90;;;;;;5073533;28;20203;-73
2023/03/03 02:08:27;;;;;;;12.97;10.40;;;6.30;99.90;;;;;;5106501;28;20186;-74
2023/03/03 02:10:54;;;;;;;15.63;10.60;;;6.30;99.90;;;;;;5085288;28;20165;-73
2023/03/03 02:13:20;;;;;;;17.87;10.90;;;6.30;99.90;;;;;;5089996;28;20180;-73
2023/03/03 02:15:46;;;;;;;13.97;10.60;;;6.30;99.90;;;;;;5078888;28;20172;-74
2023/03/03 02:18:14;;;;;;;15.37;11.80;;;6.30;99.90;;;;;;5073674;28;20182;-73
2023/03/03 02:20:57;;;;;;;16.10;11.20;;;6.30;99.90;;;;;;5073169;28;20259;-72
2023/03/03 02:23:36;;;;;;;15.13;11.00;;;6.30;99.90;;;;;;5073560;28;20273;-74
2023/03/03 02:26:14;;;;;;;15.70;11.53;;;6.20;99.90;;;;;;5073964;28;20157;-72
2023/03/03 02:28:41;;;;;;;18.93;11.10;;;6.30;99.90;;;;;;5073326;28;20164;-74
2023/03/03 02:31:13;;;;;;;17.07;11.77;;;6.20;99.90;;;;;;5104887;28;20192;-72
2023/03/03 02:33:44;;;;;;;17.47;10.63;;;6.20;99.90;;;;;;5073283;28;20158;-73
2023/03/03 02:36:15;;;;;;;16.70;11.77;;;6.10;99.90;;;;;;5072891;28;20174;-76
2023/03/03 02:39:18;;;;;;;13.93;11.30;;;6.20;99.90;;;;;;5072839;28;20210;-76
2023/03/03 02:42:00;;;;;;;17.37;11.30;;;6.20;99.90;;;;;;5072639;28;20203;-73
2023/03/03 02:44:29;;;;;;;14.33;11.23;;;6.10;99.90;;;;;;5072667;28;20180;-73
2023/03/03 02:46:55;;;;;;;17.63;10.90;;;6.20;99.90;;;;;;5072727;28;20176;-74
2023/03/03 02:49:24;;;;;;;14.37;11.00;;;6.10;99.90;;;;;;5072680;28;20192;-82
2023/03/03 02:51:51;;;;;;;15.93;10.87;;;6.00;99.90;;;;;;5072584;28;20177;-82
2023/03/03 02:54:19;;;;;;;17.10;12.43;;;5.90;99.90;;;;;;5072757;28;20671;-76
2023/03/03 02:56:45;;;;;;;18.50;12.13;;;6.00;99.90;;;;;;5072704;28;20597;-78
2023/03/03 02:59:12;;;;;;;17.33;11.53;;;5.90;99.90;;;;;;5073012;28;20247;-79
2023/03/03 03:01:38;;;;;;;15.03;11.33;;;5.90;99.90;;;;;;5072766;28;20213;-77
2023/03/03 03:04:15;;;;;;;15.63;10.90;;;5.90;99.90;;;;;;5073231;28;20174;-74
2023/03/03 03:06:42;;;;;;;16.30;10.60;;;5.80;99.90;;;;;;5095062;28;20152;-73
2023/03/03 03:09:09;;;;;;;16.67;11.97;;;5.80;99.90;;;;;;5076302;28;20514;-77
2023/03/03 03:11:35;;;;;;;16.57;11.60;;;6.00;99.90;;;;;;5071681;28;20186;-76
2023/03/03 03:14:02;;;;;;;13.47;10.80;;;6.00;99.90;;;;;;5072576;28;20318;-82
2023/03/03 03:16:28;;;;;;;17.03;12.03;;;5.90;99.90;;;;;;5072572;28;20235;-81
2023/03/03 03:18:54;;;;;;;17.07;12.30;;;6.00;99.90;;;;;;5072602;28;20704;-80
2023/03/03 03:21:20;;;;;;;16.07;11.53;;;5.90;99.90;;;;;;5072311;28;20205;-82
2023/03/03 03:23:45;;;;;;;16.17;12.40;;;5.90;99.90;;;;;;5105134;28;20526;-74
2023/03/03 03:26:11;;;;;;;18.33;11.40;;;5.80;99.90;;;;;;5104472;28;20179;-73
2023/03/03 03:28:37;;;;;;;16.23;12.17;;;5.90;99.90;;;;;;5071969;28;20185;-73
2023/03/03 03:31:04;;;;;;;16.30;11.67;;;5.80;99.90;;;;;;5072031;28;20184;-74
2023/03/03 03:33:30;;;;;;;17.97;12.10;;;5.80;99.90;;;;;;5071909;28;20645;-75
2023/03/03 03:35:57;;;;;;;17.50;12.23;;;5.90;99.90;;;;;;5071925;28;20176;-75
2023/03/03 03:38:24;;;;;;;17.23;11.70;;;5.80;99.90;;;;;;5071837;28;20167;-75
2023/03/03 03:40:50;;;;;;;17.40;11.67;;;5.70;99.90;;;;;;5071821;28;20192;-73
2023/03/03 03:43:16;;;;;;;16.07;11.23;;;5.70;99.90;;;;;;5073075;28;20214;-74
2023/03/03 03:45:42;;;;;;;16.17;11.13;;;5.60;99.90;;;;;;5079033;28;20249;-74
2023/03/03 03:48:08;;;;;;;14.97;10.53;;;5.70;99.90;;;;;;5077565;28;20177;-74
2023/03/03 03:50:35;;;;;;;16.03;11.13;;;5.70;99.90;;;;;;5072529;28;20175;-77
2023/03/03 03:53:00;;;;;;;17.37;11.33;;;5.80;99.90;;;;;;5072099;28;20254;-76
2023/03/03 03:55:26;;;;;;;14.23;11.47;;;5.80;99.90;;;;;;5070567;28;20266;-76
2023/03/03 03:57:52;;;;;;;15.67;10.90;;;5.90;99.90;;;;;;5104299;28;20700;-75
2023/03/03 04:00:18;;;;;;;14.40;10.83;;;5.80;99.90;;;;;;5071880;28;20179;-75
2023/03/03 04:02:43;;;;;;;17.10;11.67;;;5.80;99.90;;;;;;5070426;28;20540;-75
2023/03/03 04:05:09;;;;;;;17.23;11.97;;;5.70;99.90;;;;;;5075310;28;20651;-74
2023/03/03 04:07:35;;;;;;;18.03;11.57;;;5.60;99.90;;;;;;5104239;28;20236;-79
2023/03/03 04:10:00;;;;;;;15.73;11.67;;;5.60;99.90;;;;;;5071523;28;20182;-76
2023/03/03 04:12:26;;;;;;;15.67;11.43;;;5.60;99.90;;;;;;5071587;28;20173;-76
2023/03/03 04:14:52;;;;;;;15.60;11.13;;;5.50;99.90;;;;;;5071553;28;20585;-75
2023/03/03 04:17:20;;;;;;;16.17;11.90;;;5.60;99.90;;;;;;5071679;28;20198;-79
2023/03/03 04:19:46;;;;;;;15.50;11.03;;;5.50;99.90;;;;;;5071631;28;20259;-72
2023/03/03 04:22:13;;;;;;;15.13;11.13;;;5.40;99.90;;;;;;5071601;28;20279;-74
2023/03/03 04:24:40;;;;;;;20.83;11.77;;;5.40;99.90;;;;;;5071761;28;20233;-75
2023/03/03 04:27:08;;;;;;;15.10;11.30;;;5.40;99.90;;;;;;5071508;28;20187;-78
2023/03/03 04:29:34;;;;;;;16.70;11.43;;;5.50;99.90;;;;;;5071664;28;20599;-73
2023/03/03 04:32:00;;;;;;;16.13;12.17;;;5.50;99.90;;;;;;5071671;28;20174;-80
2023/03/03 04:34:26;;;;;;;14.17;10.93;;;5.50;99.90;;;;;;5071552;28;20701;-82
2023/03/03 04:36:52;;;;;;;18.83;11.53;;;5.50;99.90;;;;;;5072011;28;20253;-76
2023/03/03 04:39:18;;;;;;;14.37;10.40;;;5.50;99.90;;;;;;5071412;28;20580;-74
2023/03/03 04:41:44;;;;;;;15.03;11.00;;;5.50;99.90;;;;;;5071198;28;20205;-74
2023/03/03 04:44:09;;;;;;;13.77;11.07;;;5.40;99.90;;;;;;5071452;28;20188;-78
2023/03/03 04:46:35;;;;;;;16.53;11.23;;;5.40;99.90;;;;;;5071155;28;20582;-77
2023/03/03 04:49:01;;;;;;;14.93;11.57;;;5.30;99.90;;;;;;5071334;28;20640;-76
2023/03/03 04:51:26;;;;;;;14.77;11.23;;;5.30;99.90;;;;;;5071240;28;20177;-77
2023/03/03 04:53:52;;;;;;;14.97;10.77;;;5.40;99.90;;;;;;5073045;28;20168;-82
2023/03/03 04:56:18;;;;;;;14.87;11.10;;;5.50;99.90;;;;;;5075347;28;20175;-76
2023/03/03 04:58:44;;;;;;;18.43;12.30;;;5.40;99.90;;;;;;5075447;28;20171;-79
2023/03/03 05:01:13;;;;;;;16.50;10.83;;;5.40;99.90;;;;;;5075695;28;20210;-78
2023/03/03 05:03:39;;;;;;;15.57;10.50;;;5.50;99.90;;;;;;5077066;28;20171;-81
2023/03/03 05:06:06;;;;;;;15.20;11.30;;;5.50;99.90;;;;;;5079627;28;20175;-78
2023/03/03 05:08:32;;;;;;;11.83;10.40;;;5.50;99.90;;;;;;5077995;28;20914;-75
2023/03/03 05:10:58;;;;;;;16.53;11.53;;;5.50;99.90;;;;;;5074974;28;20180;-73
2023/03/03 05:13:26;;;;;;;15.07;11.03;;;5.50;99.90;;;;;;5071805;28;20185;-74
2023/03/03 05:15:54;;;;;;;17.60;11.63;;;5.50;99.90;;;;;;5074894;28;20305;-74
2023/03/03 05:18:21;;;;;;;14.53;11.13;;;5.60;99.90;;;;;;5060772;28;20607;-74
2023/03/03 05:20:48;;;;;;;15.27;11.00;;;5.50;99.90;;;;;;5077992;28;20187;-72
2023/03/03 05:23:14;;;;;;;15.40;10.87;;;5.50;99.90;;;;;;5074547;28;20646;-73
2023/03/03 05:25:44;;;;;;;16.03;11.00;;;5.60;99.90;;;;;;5056452;28;20263;-72
2023/03/03 05:28:10;;;;;;;13.43;10.47;;;5.60;99.90;;;;;;5074809;28;20176;-74
2023/03/03 05:30:36;;;;;;;18.70;11.53;;;5.60;99.90;;;;;;5073649;28;20228;-74
2023/03/03 05:33:03;;;;;;;15.17;10.97;;;5.60;99.90;;;;;;5073967;28;20233;-75
2023/03/03 05:35:29;;;;;;;16.03;11.60;;;5.60;99.90;;;;;;5056001;28;20173;-72
2023/03/03 05:37:56;;;;;;;14.70;11.07;;;5.60;99.90;;;;;;5073446;28;20305;-73
2023/03/03 05:40:23;;;;;;;15.70;11.47;;;5.60;99.90;;;;;;5073625;28;20460;-74
2023/03/03 05:42:49;;;;;;;17.93;11.60;;;5.70;99.90;;;;;;5073824;28;20714;-75
2023/03/03 05:45:15;;;;;;;14.10;10.87;;;5.70;99.90;;;;;;5073669;28;20180;-73
2023/03/03 05:47:40;;;;;;;15.97;11.53;;;5.70;99.90;;;;;;5073543;28;20612;-73
2023/03/03 05:50:07;;;;;;;16.17;11.77;;;5.70;99.90;;;;;;5072267;28;20194;-72
2023/03/03 05:52:32;;;;;;;16.00;11.20;;;5.70;99.90;;;;;;5072210;28;20185;-76
2023/03/03 05:54:58;;;;;;;15.50;10.70;;;5.70;99.90;;;;;;5073666;28;20747;-77
2023/03/03 05:57:24;;;;;;;15.87;11.63;;;5.70;99.90;;;;;;5071662;28;20190;-78
2023/03/03 05:59:49;;;;;;;13.97;11.50;;;5.70;99.90;;;;;;5073524;28;20179;-80
2023/03/03 06:02:15;;;;;;;16.37;10.80;;;5.70;99.90;;;;;;5073194;28;20212;-81
2023/03/03 06:04:41;;;;;;;15.07;11.30;;;5.60;99.90;;;;;;5073276;28;20184;-75
2023/03/03 06:07:07;;;;;;;16.37;12.07;;;5.70;99.90;;;;;;5072004;28;20187;-78
2023/03/03 06:09:32;;;;;;;13.40;10.80;;;5.70;99.90;;;;;;5073729;28;20258;-76
2023/03/03 06:11:58;;;;;;;17.97;11.70;;;5.80;99.90;;;;;;5073166;28;20179;-77
2023/03/03 06:14:24;;;;;;;16.30;11.50;;;5.80;99.90;;;;;;5073168;28;20176;-78
2023/03/03 06:16:50;;;;;;;17.30;11.23;;;5.80;99.90;;;;;;5073005;28;20183;-78
2023/03/03 06:19:16;;;;;;;16.00;12.17;;;5.70;99.90;;;;;;5072968;28;20174;-76
2023/03/03 06:21:42;;;;;;;19.17;11.87;;;5.70;99.90;;;;;;5071413;28;20243;-75
2023/03/03 06:24:08;;;;;;;15.10;11.20;;;5.70;99.90;;;;;;5073367;28;20187;-74
2023/03/03 06:26:34;;;;;;;15.60;11.37;;;5.70;99.90;;;;;;5071545;28;20176;-72
2023/03/03 06:29:00;;;;;;;17.90;11.40;;;5.70;99.90;;;;;;5072859;28;20186;-73
2023/03/03 06:31:26;;;;;;;17.27;12.43;;;5.80;99.90;;;;;;5072703;28;20168;-74
2023/03/03 06:33:52;;;;;;;18.97;12.83;;;5.80;99.90;;;;;;5072869;28;20534;-75
2023/03/03 06:36:18;;;;;;;20.17;14.23;;;5.80;99.90;;;;;;5072883;28;20692;-74
2023/03/03 06:38:44;;;;;;;19.27;13.40;;;5.80;99.90;;;;;;5072738;28;20254;-76
2023/03/03 06:41:10;;;;;;;18.87;13.03;;;5.80;99.90;;;;;;5070872;28;20210;-76
2023/03/03 06:43:36;;;;;;;20.57;13.13;;;5.80;99.90;;;;;;5072806;28;20300;-73
2023/03/03 06:46:03;;;;;;;15.73;12.33;;;6.00;99.90;;;;;;5072809;28;20175;-73
2023/03/03 06:48:30;;;;;;;19.30;12.37;;;6.10;99.90;;;;;;5074171;28;20221;-73
2023/03/03 06:51:01;;;;;;;17.03;13.13;;;6.10;99.90;;;;;;5083744;28;20182;-75
2023/03/03 06:53:27;;;;;;;17.50;12.30;;;6.20;99.90;;;;;;5084266;28;20159;-73
2023/03/03 06:55:56;;;;;;;18.40;11.70;;;6.20;99.90;;;;;;5072716;28;20660;-75
2023/03/03 06:58:23;;;;;;;19.33;12.63;;;6.20;99.90;;;;;;5071144;28;20197;-78
2023/03/03 07:00:59;;;;;;;17.73;12.80;;;6.30;99.90;;;;;;5072763;28;20203;-72
2023/03/03 07:03:29;;;;;;;17.00;12.63;;;6.30;99.90;;;;;;5072995;28;20168;-77
2023/03/03 07:05:55;;;;;;;19.33;12.27;;;6.40;99.90;;;;;;5074658;28;20168;-73
2023/03/03 07:08:23;;;;;;;17.50;12.03;;;6.40;99.90;;;;;;5081473;28;20314;-79
2023/03/03 07:10:50;;;;;;;14.20;11.77;;;6.50;99.90;;;;;;5072048;28;20183;-76
2023/03/03 07:13:28;;;;;;;16.33;11.93;;;6.50;99.90;;;;;;5072687;28;20177;-76
2023/03/03 07:15:57;;;;;;;17.73;11.93;;;6.60;99.90;;;;;;5070642;28;20181;-77
2023/03/03 07:18:39;;;;;;;17.90;12.83;;;6.60;99.90;;;;;;5073899;28;20173;-78
2023/03/03 07:21:17;;;;;;;17.90;12.43;;;6.60;99.90;;;;;;5071746;28;20204;-74
2023/03/03 07:23:45;;;;;;;15.83;11.33;;;6.70;99.90;;;;;;5072860;28;20226;-74
2023/03/03 07:26:13;;;;;;;19.80;11.93;;;6.60;99.90;;;;;;5072612;28;20535;-72
2023/03/03 07:28:42;;;;;;;15.70;11.57;;;6.70;99.90;;;;;;5072535;28;20198;-72
2023/03/03 07:31:36;;;;;;;18.27;12.63;;;6.80;99.90;;;;;;5072552;28;20241;-73
2023/03/03 07:34:14;;;;;;;19.07;11.97;;;6.90;99.90;;;;;;5073012;28;20546;-72
2023/03/03 07:36:40;;;;;;;14.87;11.17;;;6.90;99.90;;;;;;5072479;28;20158;-75
2023/03/03 07:39:24;;;;;;;14.90;11.93;;;6.90;99.90;;;;;;5072682;28;20180;-75
2023/03/03 07:41:50;;;;;;;18.07;11.70;;;6.90;99.90;;;;;;5072109;28;20201;-76
2023/03/03 07:44:36;;;;;;;16.70;11.67;;;7.10;99.90;;;;;;5072683;28;20153;-78
2023/03/03 07:47:35;;;;;;;14.10;11.30;;;7.30;99.90;;;;;;5072190;28;20247;-79
2023/03/03 07:50:15;;;;;;;15.17;10.70;;;7.40;99.90;;;;;;5064892;28;20181;-77
2023/03/03 07:52:58;;;;;;;15.67;11.07;;;7.50;99.90;;;;;;5072692;28;20151;-80
2023/03/03 07:55:38;;;;;;;17.83;12.70;;;7.60;99.90;;;;;;5072671;28;20172;-79
2023/03/03 07:58:16;;;;;;;15.87;11.40;;;7.50;99.90;;;;;;5072815;28;20188;-81
2023/03/03 08:00:44;;;;;;;18.53;11.33;;;7.60;99.90;;;;;;5072013;28;20306;-82
2023/03/03 08:03:18;;;;;;;15.90;11.13;;;7.80;99.90;;;;;;5072845;28;20341;-82
2023/03/03 08:05:49;;;;;;;13.33;10.60;;;7.80;99.90;;;;;;5072576;28;20172;-81
2023/03/03 08:08:35;;;;;;;14.70;10.83;;;7.90;99.90;;;;;;5071426;28;20250;-77
2023/03/03 08:11:03;;;;;;;15.97;12.13;;;7.90;99.90;;;;;;5071644;28;20167;-75
2023/03/03 08:13:31;;;;;;;14.30;11.10;;;7.80;99.90;;;;;;5072148;28;20193;-76
2023/03/03 08:16:09;;;;;;;15.10;11.40;;;7.80;99.90;;;;;;5071337;28;20173;-74
2023/03/03 08:18:57;;;;;;;17.37;11.83;;;7.80;99.90;;;;;;5071689;28;20181;-74
2023/03/03 08:21:24;;;;;;;17.37;11.60;;;7.90;99.90;;;;;;5072090;28;20270;-73
2023/03/03 08:23:52;;;;;;;17.83;11.73;;;8.20;99.90;;;;;;5082759;28;20170;-76
2023/03/03 08:26:21;;;;;;;16.33;12.20;;;8.30;99.90;;;;;;5093843;28;20266;-71
2023/03/03 08:28:47;;;;;;;15.90;11.17;;;8.50;99.90;;;;;;5081969;28;20270;-74
2023/03/03 08:31:13;;;;;;;17.97;12.07;;;8.60;99.90;;;;;;5075531;28;20274;-74
2023/03/03 08:33:39;;;;;;;15.57;11.50;;;8.60;99.90;;;;;;5074443;28;20180;-73
2023/03/03 08:36:06;;;;;;;17.47;12.07;;;8.70;99.90;;;;;;5075627;28;20176;-73
2023/03/03 08:38:32;;;;;;;16.00;12.30;;;8.80;99.90;;;;;;5074150;28;20240;-74
2023/03/03 08:40:59;;;;;;;19.87;12.10;;;8.90;99.90;;;;;;5076665;28;20209;-74
2023/03/03 08:43:24;;;;;;;20.07;11.77;;;8.90;99.90;;;;;;5096245;28;20218;-78
2023/03/03 08:45:58;;;;;;;13.87;11.17;;;8.90;99.90;;;;;;5096291;28;20193;-78
2023/03/03 08:48:24;;;;;;;15.67;11.93;;;8.90;99.90;;;;;;5096098;28;20522;-76
2023/03/03 08:50:49;;;;;;;17.87;11.60;;;8.90;99.90;;;;;;5095898;28;20219;-74
2023/03/03 08:53:17;;;;;;;16.50;11.97;;;9.00;99.90;;;;;;5095692;28;20185;-72
2023/03/03 08:55:43;;;;;;;15.30;12.63;;;9.10;99.90;;;;;;5095906;28;20173;-74
2023/03/03 08:58:08;;;;;;;14.97;11.30;;;9.10;99.90;;;;;;5095652;28;20652;-75
2023/03/03 09:00:35;;;;;;;18.17;12.63;;;9.10;99.90;;;;;;5095004;28;20178;-76
2023/03/03 09:03:01;;;;;;;16.23;11.80;;;9.10;99.90;;;;;;5094114;28;20195;-74
2023/03/03 09:05:27;;;;;;;15.83;12.50;;;9.10;99.90;;;;;;5096990;28;20193;-73
2023/03/03 09:07:54;;;;;;;17.83;11.33;;;9.20;99.90;;;;;;5104682;28;20194;-73
2023/03/03 09:10:26;;;;;;;18.63;11.93;;;9.20;99.90;;;;;;5095926;28;20181;-75
2023/03/03 09:12:55;;;;;;;20.27;12.10;;;9.20;99.90;;;;;;5095339;28;20184;-72
2023/03/03 09:15:31;;;;;;;17.43;12.83;;;9.20;99.90;;;;;;5094409;28;20268;-73
2023/03/03 09:18:13;;;;;;;17.53;12.30;;;9.20;99.90;;;;;;5094793;28;20239;-73
2023/03/03 09:20:41;;;;;;;16.10;11.53;;;9.20;99.90;;;;;;5095085;28;20521;-72
2023/03/03 09:23:35;;;;;;;15.93;12.17;;;9.20;99.90;;;;;;5094802;28;20197;-76
2023/03/03 09:26:33;;;;;;;15.90;10.43;;;9.20;99.90;;;;;;5094932;28;20626;-73
2023/03/03 09:29:16;;;;;;;15.60;10.27;;;9.20;99.90;;;;;;5095035;28;20170;-71
2023/03/03 09:31:50;;;;;;;14.90;10.23;;;9.20;99.90;;;;;;5094523;28;20167;-72
2023/03/03 09:34:22;;;;;;;16.00;10.83;;;9.10;99.90;;;;;;5093519;28;20176;-73
2023/03/03 09:36:49;;;;;;;18.33;11.77;;;9.10;99.90;;;;;;5095775;28;20181;-77
2023/03/03 09:39:19;;;;;;;14.90;10.23;;;9.10;99.90;;;;;;5094666;28;20215;-72
2023/03/03 09:42:10;;;;;;;17.37;11.17;;;9.00;99.90;;;;;;5094108;28;20226;-75
2023/03/03 09:44:57;;;;;;;17.90;10.43;;;9.00;99.90;;;;;;5093506;28;20219;-73
2023/03/03 09:47:38;;;;;;;15.13;10.70;;;9.00;99.90;;;;;;5093052;28;20286;-73
2023/03/03 09:50:33;;;;;;;14.10;9.27;;;9.00;99.90;;;;;;5094445;28;20213;-73
2023/03/03 09:53:18;;;;;;;16.90;9.50;;;9.10;99.90;;;;;;5094589;28;20190;-75
2023/03/03 09:55:59;;;;;;;11.87;9.20;;;9.20;99.90;;;;;;5094981;28;20159;-77
2023/03/03 09:58:44;;;;;;;14.40;9.70;;;9.30;99.90;;;;;;5107233;28;20178;-73
2023/03/03 10:01:41;;;;;;;12.70;9.50;;;9.30;99.90;;;;;;5105801;28;20666;-79
2023/03/03 10:04:25;;;;;;;12.23;9.27;;;9.40;99.90;;;;;;5095154;28;20187;-71
2023/03/03 10:07:14;;;;;;;13.17;9.43;;;9.50;99.90;;;;;;5094133;28;20174;-73
2023/03/03 10:10:09;;;;;;;12.70;9.00;;;9.60;99.90;;;;;;5065424;28;20545;-74
2023/03/03 10:12:46;;;;;;;12.23;8.80;;;9.60;99.90;;;;;;5093961;28;20162;-77
2023/03/03 10:15:21;;;;;;;11.60;8.03;;;9.50;99.90;;;;;;5094374;28;20203;-76
2023/03/03 10:18:00;;;;;;;10.67;8.63;;;9.60;99.90;;;;;;5094140;28;20615;-76
2023/03/03 10:21:03;;;;;;;10.23;7.53;;;9.60;99.90;;;;;;5093986;28;20228;-76
2023/03/03 10:23:35;;;;;;;10.00;8.03;;;9.70;99.90;;;;;;5092037;28;20239;-80
2023/03/03 10:26:22;;;;;;;11.13;7.93;;;9.80;99.90;;;;;;5092461;28;20215;-80
2023/03/03 10:29:07;;;;;;;10.80;7.87;;;9.90;99.90;;;;;;5093992;28;20581;-79
2023/03/03 10:31:50;;;;;;;11.30;8.13;;;10.00;99.90;;;;;;5094067;28;20243;-76
2023/03/03 10:34:53;;;;;;;10.53;8.03;;;10.10;99.90;;;;;;5093140;28;20627;-79
2023/03/03 10:37:43;;;;;;;11.97;7.77;;;10.20;99.90;;;;;;5096119;28;20273;-78
2023/03/03 10:40:17;;;;;;;11.57;7.50;;;10.40;99.90;;;;;;5094013;28;20517;-80
2023/03/03 10:42:49;;;;;;;11.40;7.63;;;10.60;99.90;;;;;;5093980;28;20560;-81
2023/03/03 10:45:40;;;;;;;12.67;7.57;;;10.60;99.90;;;;;;5092785;28;20169;-78
2023/03/03 10:48:27;;;;;;;9.77;6.73;;;10.80;99.90;;;;;;5092679;28;20165;-77
2023/03/03 10:51:34;;;;;;;8.63;7.00;;;10.90;99.90;;;;;;5093010;28;20166;-80
2023/03/03 10:54:08;;;;;;;8.83;7.23;;;10.90;99.90;;;;;;5030947;28;21012;-74
2023/03/03 10:56:37;;;;;;;11.17;7.03;;;10.90;99.90;;;;;;5014600;28;20516;-76
2023/03/03 10:59:12;;;;;;;8.97;7.17;;;11.20;99.90;;;;;;5031898;28;20185;-78
2023/03/03 11:01:56;;;;;;;9.00;7.13;;;11.40;99.90;;;;;;5032278;28;20212;-80
2023/03/03 11:04:44;;;;;;;9.17;7.27;;;11.60;99.90;;;;;;5032756;28;20194;-81
2023/03/03 11:07:21;;;;;;;7.83;7.03;;;11.80;99.90;;;;;;5032978;28;20260;-83
2023/03/03 11:10:06;;;;;;;11.57;7.50;;;11.90;99.90;;;;;;5035553;28;20242;-74
2023/03/03 11:13:09;;;;;;;8.97;7.20;;;12.10;99.90;;;;;;5043626;28;20232;-82
2023/03/03 11:15:50;;;;;;;9.43;7.13;;;12.20;99.90;;;;;;5037280;28;20239;-78
2023/03/03 11:18:38;;;;;;;9.07;7.40;;;12.30;99.10;;;;;;5031603;28;20689;-75
2023/03/03 11:21:10;;;;;;;8.67;7.00;;;12.40;99.40;;;;;;5031233;28;20747;-74
2023/03/03 11:24:24;;;;;;;7.93;6.80;;;12.50;99.20;;;;;;5031210;28;20191;-75
2023/03/03 11:27:14;;;;;;;9.03;7.23;;;12.50;99.40;;;;;;4972805;28;20232;-73
2023/03/03 11:30:01;;;;;;;9.33;7.47;;;12.50;99.20;;;;;;5040503;28;20195;-71
2023/03/03 11:33:02;;;;;;;9.93;7.10;;;12.50;99.00;;;;;;5101397;28;20167;-72
2023/03/03 11:35:49;;;;;;;8.80;6.90;;;12.60;98.30;;;;;;5084443;28;20541;-73
2023/03/03 11:38:26;;;;;;;9.57;6.33;;;12.60;98.30;;;;;;5095111;28;20162;-79
2023/03/03 11:41:28;;;;;;;8.27;6.87;;;12.70;98.00;;;;;;5092774;28;20178;-76
2023/03/03 11:44:10;;;;;;;8.70;6.43;;;12.90;97.80;;;;;;5094071;28;20263;-77
2023/03/03 11:46:59;;;;;;;14.20;6.33;;;13.00;97.30;;;;;;5091323;28;20156;-76
2023/03/03 11:49:38;;;;;;;8.03;6.13;;;13.00;96.90;;;;;;5092606;28;20211;-77
2023/03/03 11:52:24;;;;;;;8.23;6.70;;;12.90;97.80;;;;;;5092327;28;20641;-75
2023/03/03 11:55:08;;;;;;;9.60;7.03;;;12.70;97.80;;;;;;5090833;28;20707;-81
2023/03/03 11:57:56;;;;;;;10.03;6.80;;;12.60;98.10;;;;;;5092285;28;20170;-77
2023/03/03 12:00:21;;;;;;;8.70;7.07;;;12.40;98.20;;;;;;5092307;28;20162;-77
2023/03/03 12:03:01;;;;;;;9.47;7.23;;;12.40;98.60;;;;;;5093558;28;20292;-76
2023/03/03 12:06:08;;;;;;;10.37;6.20;;;12.40;98.30;;;;;;5095074;28;20166;-75
2023/03/03 12:08:58;;;;;;;7.73;6.23;;;12.40;98.50;;;;;;5096278;28;20166;-79
2023/03/03 12:11:42;;;;;;;8.00;6.63;;;12.40;98.20;;;;;;5096116;28;20217;-75
2023/03/03 12:14:37;;;;;;;8.30;6.73;;;12.50;98.30;;;;;;5096972;28;20163;-74
2023/03/03 12:17:14;;;;;;;8.23;6.63;;;12.50;98.10;;;;;;5096533;28;20158;-74
2023/03/03 12:20:05;;;;;;;9.77;7.30;;;12.50;98.20;;;;;;5095808;28;20158;-75
2023/03/03 12:22:33;;;;;;;8.50;7.50;;;12.30;98.20;;;;;;5033032;28;20224;-74
2023/03/03 12:25:46;;;;;;;11.20;7.17;;;12.20;99.00;;;;;;5033357;28;20200;-78
2023/03/03 12:28:15;;;;;;;10.20;7.70;;;12.50;98.40;;;;;;5008373;28;20683;-76
2023/03/03 12:31:08;;;;;;;7.67;6.83;;;12.80;98.30;;;;;;5033382;28;20180;-74
2023/03/03 12:33:36;;;;;;;8.20;6.17;;;12.80;98.50;;;;;;5033485;28;20273;-75
2023/03/03 12:36:02;;;;;;;8.27;6.00;;;13.00;98.00;;;;;;5016395;28;20276;-78
2023/03/03 12:38:41;;;;;;;8.07;6.20;;;13.00;98.10;;;;;;5033141;28;20177;-74
2023/03/03 12:41:25;;;;;;;7.47;6.40;;;13.00;97.90;;;;;;5032969;28;20365;-74
2023/03/03 12:44:07;;;;;;;8.63;7.07;;;13.10;97.90;;;;;;5033268;28;20220;-73
2023/03/03 12:46:39;;;;;;;8.73;7.07;;;13.10;97.80;;;;;;5032854;28;20193;-73
2023/03/03 12:49:05;;;;;;;10.33;6.10;;;13.10;98.00;;;;;;5033151;28;20234;-72
2023/03/03 12:51:31;;;;;;;8.80;6.50;;;13.20;97.70;;;;;;5032863;28;20679;-74
2023/03/03 12:54:21;;;;;;;8.53;6.13;;;13.30;97.80;;;;;;5032777;28;20649;-72
2023/03/03 12:56:54;;;;;;;8.03;6.60;;;13.30;97.80;;;;;;5032773;28;20183;-74
2023/03/03 12:59:39;;;;;;;9.70;6.27;;;13.40;97.70;;;;;;5059172;28;20186;-73
2023/03/03 13:02:24;;;;;;;11.03;6.97;;;13.30;97.70;;;;;;5095854;28;20210;-72
2023/03/03 13:05:01;;;;;;;14.10;7.27;;;13.20;98.00;;;;;;5096377;28;20182;-72
2023/03/03 13:08:17;;;;;;;9.77;6.60;;;13.10;97.80;;;;;;5101389;28;20516;-73
2023/03/03 13:11:00;;;;;;;11.33;6.17;;;13.10;97.80;;;;;;5105756;28;20174;-72